sensor_id;sensor_type;location;lat;lon;timestamp;P1;durP1;ratioP1;P2;durP2;ratioP2
81176;SDS011;74095;48.270;14.200;2024-02-23T00:00:50;15.82;;;8.77;;
81176;SDS011;74095;48.270;14.200;2024-02-23T00:03:15;13.10;;;8.25;;
81176;SDS011;74095;48.270;14.200;2024-02-23T00:05:41;15.18;;;8.45;;
81176;SDS011;74095;48.270;14.200;2024-02-23T00:08:07;14.93;;;8.32;;
81176;SDS011;74095;48.270;14.200;2024-02-23T00:10:34;12.35;;;7.18;;
81176;SDS011;74095;48.270;14.200;2024-02-23T00:13:00;13.90;;;8.35;;
81176;SDS011;74095;48.270;14.200;2024-02-23T00:15:26;13.23;;;7.13;;
81176;SDS011;74095;48.270;14.200;2024-02-23T00:17:52;13.07;;;7.85;;
81176;SDS011;74095;48.270;14.200;2024-02-23T00:20:18;14.57;;;8.40;;
81176;SDS011;74095;48.270;14.200;2024-02-23T00:22:44;13.40;;;8.27;;
81176;SDS011;74095;48.270;14.200;2024-02-23T00:25:10;11.45;;;7.55;;
81176;SDS011;74095;48.270;14.200;2024-02-23T00:27:36;9.57;;;6.85;;
81176;SDS011;74095;48.270;14.200;2024-02-23T00:30:02;12.52;;;8.23;;
81176;SDS011;74095;48.270;14.200;2024-02-23T00:32:29;12.18;;;7.78;;
81176;SDS011;74095;48.270;14.200;2024-02-23T00:34:56;12.77;;;8.43;;
81176;SDS011;74095;48.270;14.200;2024-02-23T00:37:22;10.10;;;6.70;;
81176;SDS011;74095;48.270;14.200;2024-02-23T00:39:48;13.90;;;8.80;;
81176;SDS011;74095;48.270;14.200;2024-02-23T00:42:14;14.98;;;8.50;;
81176;SDS011;74095;48.270;14.200;2024-02-23T00:44:40;11.77;;;6.88;;
81176;SDS011;74095;48.270;14.200;2024-02-23T00:47:06;17.30;;;9.95;;
81176;SDS011;74095;48.270;14.200;2024-02-23T00:49:32;11.38;;;8.70;;
81176;SDS011;74095;48.270;14.200;2024-02-23T00:51:58;14.60;;;9.35;;
81176;SDS011;74095;48.270;14.200;2024-02-23T00:54:24;14.15;;;8.48;;
81176;SDS011;74095;48.270;14.200;2024-02-23T00:56:49;11.57;;;8.13;;
81176;SDS011;74095;48.270;14.200;2024-02-23T00:59:15;12.52;;;8.27;;
81176;SDS011;74095;48.270;14.200;2024-02-23T01:01:41;15.65;;;8.93;;
81176;SDS011;74095;48.270;14.200;2024-02-23T01:04:07;12.50;;;8.88;;
81176;SDS011;74095;48.270;14.200;2024-02-23T01:06:33;16.08;;;9.93;;
81176;SDS011;74095;48.270;14.200;2024-02-23T01:08:59;12.07;;;8.88;;
81176;SDS011;74095;48.270;14.200;2024-02-23T01:11:25;12.40;;;8.43;;
81176;SDS011;74095;48.270;14.200;2024-02-23T01:13:51;15.98;;;9.85;;
81176;SDS011;74095;48.270;14.200;2024-02-23T01:16:17;14.05;;;8.95;;
81176;SDS011;74095;48.270;14.200;2024-02-23T01:18:42;14.60;;;9.77;;
81176;SDS011;74095;48.270;14.200;2024-02-23T01:21:08;12.18;;;8.70;;
81176;SDS011;74095;48.270;14.200;2024-02-23T01:23:34;11.40;;;8.65;;
81176;SDS011;74095;48.270;14.200;2024-02-23T01:26:00;13.73;;;8.88;;
81176;SDS011;74095;48.270;14.200;2024-02-23T01:28:27;13.75;;;9.70;;
81176;SDS011;74095;48.270;14.200;2024-02-23T01:30:53;15.35;;;9.82;;
81176;SDS011;74095;48.270;14.200;2024-02-23T01:33:19;14.57;;;9.77;;
81176;SDS011;74095;48.270;14.200;2024-02-23T01:35:45;13.23;;;7.38;;
81176;SDS011;74095;48.270;14.200;2024-02-23T01:38:11;16.80;;;10.73;;
81176;SDS011;74095;48.270;14.200;2024-02-23T01:40:37;14.75;;;9.02;;
81176;SDS011;74095;48.270;14.200;2024-02-23T01:43:06;18.60;;;11.13;;
81176;SDS011;74095;48.270;14.200;2024-02-23T01:45:32;18.00;;;12.20;;
81176;SDS011;74095;48.270;14.200;2024-02-23T01:47:58;22.10;;;15.15;;
81176;SDS011;74095;48.270;14.200;2024-02-23T01:50:26;13.60;;;9.27;;
81176;SDS011;74095;48.270;14.200;2024-02-23T01:52:52;16.48;;;10.90;;
81176;SDS011;74095;48.270;14.200;2024-02-23T01:55:20;19.88;;;11.20;;
81176;SDS011;74095;48.270;14.200;2024-02-23T01:57:47;16.65;;;9.40;;
81176;SDS011;74095;48.270;14.200;2024-02-23T02:00:18;16.23;;;10.10;;
81176;SDS011;74095;48.270;14.200;2024-02-23T02:02:44;12.18;;;9.02;;
81176;SDS011;74095;48.270;14.200;2024-02-23T02:05:10;14.68;;;9.27;;
81176;SDS011;74095;48.270;14.200;2024-02-23T02:07:37;12.07;;;7.78;;
81176;SDS011;74095;48.270;14.200;2024-02-23T02:10:03;10.00;;;7.43;;
81176;SDS011;74095;48.270;14.200;2024-02-23T02:12:32;9.73;;;6.78;;
81176;SDS011;74095;48.270;14.200;2024-02-23T02:14:58;9.93;;;7.28;;
81176;SDS011;74095;48.270;14.200;2024-02-23T02:17:29;9.20;;;5.70;;
81176;SDS011;74095;48.270;14.200;2024-02-23T02:19:55;8.15;;;5.00;;
81176;SDS011;74095;48.270;14.200;2024-02-23T02:22:24;9.80;;;5.75;;
81176;SDS011;74095;48.270;14.200;2024-02-23T02:24:50;9.18;;;5.05;;
81176;SDS011;74095;48.270;14.200;2024-02-23T02:27:16;7.07;;;4.13;;
81176;SDS011;74095;48.270;14.200;2024-02-23T02:29:42;6.63;;;3.97;;
81176;SDS011;74095;48.270;14.200;2024-02-23T02:32:08;6.65;;;5.22;;
81176;SDS011;74095;48.270;14.200;2024-02-23T02:34:34;6.55;;;4.88;;
81176;SDS011;74095;48.270;14.200;2024-02-23T02:37:00;5.95;;;4.00;;
81176;SDS011;74095;48.270;14.200;2024-02-23T02:39:26;6.53;;;4.00;;
81176;SDS011;74095;48.270;14.200;2024-02-23T02:41:52;4.30;;;3.03;;
81176;SDS011;74095;48.270;14.200;2024-02-23T02:44:18;3.88;;;2.90;;
81176;SDS011;74095;48.270;14.200;2024-02-23T02:46:44;5.07;;;3.35;;
81176;SDS011;74095;48.270;14.200;2024-02-23T02:49:11;4.35;;;2.72;;
81176;SDS011;74095;48.270;14.200;2024-02-23T02:51:37;4.20;;;2.85;;
81176;SDS011;74095;48.270;14.200;2024-02-23T02:54:04;3.90;;;2.45;;
81176;SDS011;74095;48.270;14.200;2024-02-23T02:56:30;5.05;;;2.55;;
81176;SDS011;74095;48.270;14.200;2024-02-23T02:58:56;4.40;;;2.95;;
81176;SDS011;74095;48.270;14.200;2024-02-23T03:01:23;4.30;;;3.03;;
81176;SDS011;74095;48.270;14.200;2024-02-23T03:03:54;4.13;;;2.53;;
81176;SDS011;74095;48.270;14.200;2024-02-23T03:06:26;3.30;;;2.60;;
81176;SDS011;74095;48.270;14.200;2024-02-23T03:08:56;4.60;;;2.50;;
81176;SDS011;74095;48.270;14.200;2024-02-23T03:11:23;2.75;;;1.40;;
81176;SDS011;74095;48.270;14.200;2024-02-23T03:13:50;2.95;;;1.48;;
81176;SDS011;74095;48.270;14.200;2024-02-23T03:16:20;2.47;;;1.30;;
81176;SDS011;74095;48.270;14.200;2024-02-23T03:18:58;2.47;;;1.10;;
81176;SDS011;74095;48.270;14.200;2024-02-23T03:21:26;2.42;;;1.10;;
81176;SDS011;74095;48.270;14.200;2024-02-23T03:23:55;1.88;;;1.23;;
81176;SDS011;74095;48.270;14.200;2024-02-23T03:26:27;1.83;;;1.20;;
81176;SDS011;74095;48.270;14.200;2024-02-23T03:28:55;1.92;;;1.40;;
81176;SDS011;74095;48.270;14.200;2024-02-23T03:31:24;3.40;;;1.48;;
81176;SDS011;74095;48.270;14.200;2024-02-23T03:33:54;2.38;;;1.63;;
81176;SDS011;74095;48.270;14.200;2024-02-23T03:36:24;3.50;;;1.63;;
81176;SDS011;74095;48.270;14.200;2024-02-23T03:38:55;2.00;;;1.42;;
81176;SDS011;74095;48.270;14.200;2024-02-23T03:41:24;2.75;;;1.60;;
81176;SDS011;74095;48.270;14.200;2024-02-23T03:43:54;2.47;;;1.20;;
81176;SDS011;74095;48.270;14.200;2024-02-23T03:46:24;2.45;;;1.67;;
81176;SDS011;74095;48.270;14.200;2024-02-23T03:48:56;2.60;;;1.60;;
81176;SDS011;74095;48.270;14.200;2024-02-23T03:51:29;3.35;;;1.60;;
81176;SDS011;74095;48.270;14.200;2024-02-23T03:54:10;2.05;;;1.30;;
81176;SDS011;74095;48.270;14.200;2024-02-23T03:57:06;3.03;;;1.50;;
81176;SDS011;74095;48.270;14.200;2024-02-23T04:00:00;1.85;;;1.02;;
81176;SDS011;74095;48.270;14.200;2024-02-23T04:02:57;2.33;;;1.13;;
81176;SDS011;74095;48.270;14.200;2024-02-23T04:05:52;1.52;;;1.20;;
81176;SDS011;74095;48.270;14.200;2024-02-23T04:08:48;2.10;;;1.30;;
81176;SDS011;74095;48.270;14.200;2024-02-23T04:11:47;1.42;;;1.05;;
81176;SDS011;74095;48.270;14.200;2024-02-23T04:14:43;1.92;;;1.17;;
81176;SDS011;74095;48.270;14.200;2024-02-23T04:17:37;2.30;;;1.17;;
81176;SDS011;74095;48.270;14.200;2024-02-23T04:20:34;2.03;;;1.40;;
81176;SDS011;74095;48.270;14.200;2024-02-23T04:23:30;1.65;;;1.20;;
81176;SDS011;74095;48.270;14.200;2024-02-23T04:26:26;2.95;;;1.23;;
81176;SDS011;74095;48.270;14.200;2024-02-23T04:29:25;1.52;;;1.10;;
81176;SDS011;74095;48.270;14.200;2024-02-23T04:32:18;2.28;;;1.10;;
81176;SDS011;74095;48.270;14.200;2024-02-23T04:35:12;1.80;;;1.20;;
81176;SDS011;74095;48.270;14.200;2024-02-23T04:38:04;1.30;;;1.10;;
81176;SDS011;74095;48.270;14.200;2024-02-23T04:41:03;1.48;;;0.93;;
81176;SDS011;74095;48.270;14.200;2024-02-23T04:44:01;2.72;;;0.90;;
81176;SDS011;74095;48.270;14.200;2024-02-23T04:46:52;3.30;;;1.00;;
81176;SDS011;74095;48.270;14.200;2024-02-23T04:49:48;3.15;;;1.10;;
81176;SDS011;74095;48.270;14.200;2024-02-23T04:52:43;2.30;;;1.13;;
81176;SDS011;74095;48.270;14.200;2024-02-23T04:55:38;1.98;;;1.00;;
81176;SDS011;74095;48.270;14.200;2024-02-23T04:58:29;1.73;;;0.77;;
81176;SDS011;74095;48.270;14.200;2024-02-23T05:01:23;1.27;;;0.60;;
81176;SDS011;74095;48.270;14.200;2024-02-23T05:04:19;1.60;;;0.95;;
81176;SDS011;74095;48.270;14.200;2024-02-23T05:07:19;1.17;;;0.70;;
81176;SDS011;74095;48.270;14.200;2024-02-23T05:10:17;2.10;;;0.80;;
81176;SDS011;74095;48.270;14.200;2024-02-23T05:13:13;2.03;;;0.80;;
81176;SDS011;74095;48.270;14.200;2024-02-23T05:16:06;1.42;;;0.60;;
81176;SDS011;74095;48.270;14.200;2024-02-23T05:19:04;1.02;;;0.60;;
81176;SDS011;74095;48.270;14.200;2024-02-23T05:21:58;0.70;;;0.30;;
81176;SDS011;74095;48.270;14.200;2024-02-23T05:24:53;2.63;;;0.50;;
81176;SDS011;74095;48.270;14.200;2024-02-23T05:27:45;1.33;;;0.40;;
81176;SDS011;74095;48.270;14.200;2024-02-23T05:30:43;1.60;;;0.80;;
81176;SDS011;74095;48.270;14.200;2024-02-23T05:33:36;1.38;;;0.60;;
81176;SDS011;74095;48.270;14.200;2024-02-23T05:36:36;0.80;;;0.43;;
81176;SDS011;74095;48.270;14.200;2024-02-23T05:39:37;0.82;;;0.45;;
81176;SDS011;74095;48.270;14.200;2024-02-23T05:42:44;1.15;;;0.28;;
81176;SDS011;74095;48.270;14.200;2024-02-23T05:45:38;1.15;;;0.40;;
81176;SDS011;74095;48.270;14.200;2024-02-23T05:48:32;0.52;;;0.30;;
81176;SDS011;74095;48.270;14.200;2024-02-23T05:51:32;0.52;;;0.38;;
81176;SDS011;74095;48.270;14.200;2024-02-23T05:57:37;0.60;;;0.50;;
81176;SDS011;74095;48.270;14.200;2024-02-23T06:00:40;2.15;;;0.65;;
81176;SDS011;74095;48.270;14.200;2024-02-23T06:03:42;2.17;;;0.80;;
81176;SDS011;74095;48.270;14.200;2024-02-23T06:06:36;0.35;;;0.30;;
81176;SDS011;74095;48.270;14.200;2024-02-23T06:09:33;1.92;;;0.30;;
81176;SDS011;74095;48.270;14.200;2024-02-23T06:12:32;0.70;;;0.30;;
81176;SDS011;74095;48.270;14.200;2024-02-23T06:15:35;0.30;;;0.15;;
81176;SDS011;74095;48.270;14.200;2024-02-23T06:18:29;1.17;;;0.20;;
81176;SDS011;74095;48.270;14.200;2024-02-23T06:21:30;0.85;;;0.30;;
81176;SDS011;74095;48.270;14.200;2024-02-23T06:24:25;0.40;;;0.20;;
81176;SDS011;74095;48.270;14.200;2024-02-23T06:27:23;2.58;;;1.75;;
81176;SDS011;74095;48.270;14.200;2024-02-23T06:30:18;1.10;;;0.70;;
81176;SDS011;74095;48.270;14.200;2024-02-23T06:33:10;1.67;;;0.45;;
81176;SDS011;74095;48.270;14.200;2024-02-23T06:36:04;1.92;;;0.70;;
81176;SDS011;74095;48.270;14.200;2024-02-23T06:38:56;1.38;;;0.70;;
81176;SDS011;74095;48.270;14.200;2024-02-23T06:45:04;1.15;;;0.45;;
81176;SDS011;74095;48.270;14.200;2024-02-23T06:48:10;3.38;;;2.17;;
81176;SDS011;74095;48.270;14.200;2024-02-23T06:51:06;1.48;;;1.10;;
81176;SDS011;74095;48.270;14.200;2024-02-23T06:54:02;0.73;;;0.55;;
81176;SDS011;74095;48.270;14.200;2024-02-23T06:57:02;1.40;;;0.50;;
81176;SDS011;74095;48.270;14.200;2024-02-23T06:59:56;0.80;;;0.10;;
81176;SDS011;74095;48.270;14.200;2024-02-23T07:02:55;0.77;;;0.50;;
81176;SDS011;74095;48.270;14.200;2024-02-23T07:05:48;0.88;;;0.47;;
81176;SDS011;74095;48.270;14.200;2024-02-23T07:08:59;8.38;;;1.00;;
81176;SDS011;74095;48.270;14.200;2024-02-23T07:11:55;1.27;;;0.60;;
81176;SDS011;74095;48.270;14.200;2024-02-23T07:14:50;0.50;;;0.50;;
81176;SDS011;74095;48.270;14.200;2024-02-23T07:17:45;0.63;;;0.38;;
81176;SDS011;74095;48.270;14.200;2024-02-23T07:20:40;1.77;;;0.70;;
81176;SDS011;74095;48.270;14.200;2024-02-23T07:23:43;0.82;;;0.50;;
81176;SDS011;74095;48.270;14.200;2024-02-23T07:26:47;1.52;;;0.60;;
81176;SDS011;74095;48.270;14.200;2024-02-23T07:29:39;1.15;;;0.77;;
81176;SDS011;74095;48.270;14.200;2024-02-23T07:32:30;1.00;;;0.70;;
81176;SDS011;74095;48.270;14.200;2024-02-23T07:35:27;1.58;;;1.10;;
81176;SDS011;74095;48.270;14.200;2024-02-23T07:38:23;1.90;;;0.85;;
81176;SDS011;74095;48.270;14.200;2024-02-23T07:41:22;1.95;;;1.00;;
81176;SDS011;74095;48.270;14.200;2024-02-23T07:44:16;1.05;;;0.93;;
81176;SDS011;74095;48.270;14.200;2024-02-23T07:47:09;2.08;;;0.77;;
81176;SDS011;74095;48.270;14.200;2024-02-23T07:50:05;2.47;;;0.73;;
81176;SDS011;74095;48.270;14.200;2024-02-23T07:53:03;0.70;;;0.40;;
81176;SDS011;74095;48.270;14.200;2024-02-23T07:55:55;1.35;;;0.77;;
81176;SDS011;74095;48.270;14.200;2024-02-23T07:58:57;1.17;;;0.50;;
81176;SDS011;74095;48.270;14.200;2024-02-23T08:01:50;2.65;;;1.13;;
81176;SDS011;74095;48.270;14.200;2024-02-23T08:04:49;1.13;;;0.50;;
81176;SDS011;74095;48.270;14.200;2024-02-23T08:07:47;1.08;;;0.30;;
81176;SDS011;74095;48.270;14.200;2024-02-23T08:10:45;0.52;;;0.32;;
81176;SDS011;74095;48.270;14.200;2024-02-23T08:13:39;0.85;;;0.50;;
81176;SDS011;74095;48.270;14.200;2024-02-23T08:16:34;1.88;;;0.50;;
81176;SDS011;74095;48.270;14.200;2024-02-23T08:19:27;1.23;;;0.63;;
81176;SDS011;74095;48.270;14.200;2024-02-23T08:22:22;1.27;;;0.65;;
81176;SDS011;74095;48.270;14.200;2024-02-23T08:25:15;1.70;;;0.65;;
81176;SDS011;74095;48.270;14.200;2024-02-23T08:28:11;1.40;;;0.80;;
81176;SDS011;74095;48.270;14.200;2024-02-23T08:31:03;1.48;;;0.77;;
81176;SDS011;74095;48.270;14.200;2024-02-23T08:33:55;2.10;;;0.98;;
81176;SDS011;74095;48.270;14.200;2024-02-23T08:36:44;1.10;;;0.55;;
81176;SDS011;74095;48.270;14.200;2024-02-23T08:39:43;0.70;;;0.50;;
81176;SDS011;74095;48.270;14.200;2024-02-23T08:42:41;2.95;;;0.55;;
81176;SDS011;74095;48.270;14.200;2024-02-23T08:45:37;1.42;;;0.50;;
81176;SDS011;74095;48.270;14.200;2024-02-23T08:48:32;1.77;;;0.57;;
81176;SDS011;74095;48.270;14.200;2024-02-23T08:51:27;0.60;;;0.50;;
81176;SDS011;74095;48.270;14.200;2024-02-23T08:54:22;1.70;;;0.40;;
81176;SDS011;74095;48.270;14.200;2024-02-23T08:57:21;2.05;;;0.77;;
81176;SDS011;74095;48.270;14.200;2024-02-23T09:00:18;1.25;;;0.40;;
81176;SDS011;74095;48.270;14.200;2024-02-23T09:03:15;0.50;;;0.40;;
81176;SDS011;74095;48.270;14.200;2024-02-23T09:06:05;0.85;;;0.40;;
81176;SDS011;74095;48.270;14.200;2024-02-23T09:08:59;0.50;;;0.40;;
81176;SDS011;74095;48.270;14.200;2024-02-23T09:11:53;0.77;;;0.32;;
81176;SDS011;74095;48.270;14.200;2024-02-23T09:14:51;1.35;;;0.45;;
81176;SDS011;74095;48.270;14.200;2024-02-23T09:17:47;1.77;;;0.30;;
81176;SDS011;74095;48.270;14.200;2024-02-23T09:20:42;0.98;;;0.50;;
81176;SDS011;74095;48.270;14.200;2024-02-23T09:23:39;1.30;;;0.30;;
81176;SDS011;74095;48.270;14.200;2024-02-23T09:26:32;1.40;;;0.40;;
81176;SDS011;74095;48.270;14.200;2024-02-23T09:29:29;1.70;;;0.43;;
81176;SDS011;74095;48.270;14.200;2024-02-23T09:32:26;1.02;;;0.40;;
81176;SDS011;74095;48.270;14.200;2024-02-23T09:35:22;0.60;;;0.30;;
81176;SDS011;74095;48.270;14.200;2024-02-23T09:38:15;1.40;;;0.30;;
81176;SDS011;74095;48.270;14.200;2024-02-23T09:41:10;0.70;;;0.30;;
81176;SDS011;74095;48.270;14.200;2024-02-23T09:44:08;0.50;;;0.30;;
81176;SDS011;74095;48.270;14.200;2024-02-23T09:47:14;1.65;;;0.47;;
81176;SDS011;74095;48.270;14.200;2024-02-23T09:50:07;1.15;;;0.60;;
81176;SDS011;74095;48.270;14.200;2024-02-23T09:53:10;0.80;;;0.40;;
81176;SDS011;74095;48.270;14.200;2024-02-23T09:56:11;2.50;;;0.50;;
81176;SDS011;74095;48.270;14.200;2024-02-23T09:59:01;2.47;;;0.82;;
81176;SDS011;74095;48.270;14.200;2024-02-23T10:01:28;1.33;;;0.60;;
81176;SDS011;74095;48.270;14.200;2024-02-23T10:03:59;1.20;;;0.45;;
81176;SDS011;74095;48.270;14.200;2024-02-23T10:06:26;0.60;;;0.50;;
81176;SDS011;74095;48.270;14.200;2024-02-23T10:08:53;0.90;;;0.43;;
81176;SDS011;74095;48.270;14.200;2024-02-23T10:11:23;0.93;;;0.50;;
81176;SDS011;74095;48.270;14.200;2024-02-23T10:13:50;1.30;;;0.60;;
81176;SDS011;74095;48.270;14.200;2024-02-23T10:16:17;0.85;;;0.70;;
81176;SDS011;74095;48.270;14.200;2024-02-23T10:18:46;0.63;;;0.43;;
81176;SDS011;74095;48.270;14.200;2024-02-23T10:21:16;0.90;;;0.60;;
81176;SDS011;74095;48.270;14.200;2024-02-23T10:23:43;1.38;;;0.70;;
81176;SDS011;74095;48.270;14.200;2024-02-23T10:26:10;2.15;;;0.63;;
81176;SDS011;74095;48.270;14.200;2024-02-23T10:28:36;0.55;;;0.40;;
81176;SDS011;74095;48.270;14.200;2024-02-23T10:31:06;1.88;;;0.65;;
81176;SDS011;74095;48.270;14.200;2024-02-23T10:33:32;0.93;;;0.50;;
81176;SDS011;74095;48.270;14.200;2024-02-23T10:35:58;1.02;;;0.55;;
81176;SDS011;74095;48.270;14.200;2024-02-23T10:38:26;0.75;;;0.38;;
81176;SDS011;74095;48.270;14.200;2024-02-23T10:40:55;1.20;;;0.40;;
81176;SDS011;74095;48.270;14.200;2024-02-23T10:43:24;1.35;;;0.52;;
81176;SDS011;74095;48.270;14.200;2024-02-23T10:45:58;1.13;;;0.40;;
81176;SDS011;74095;48.270;14.200;2024-02-23T10:48:28;2.60;;;0.47;;
81176;SDS011;74095;48.270;14.200;2024-02-23T10:50:55;0.85;;;0.60;;
81176;SDS011;74095;48.270;14.200;2024-02-23T10:53:22;0.55;;;0.40;;
81176;SDS011;74095;48.270;14.200;2024-02-23T10:55:50;1.52;;;0.50;;
81176;SDS011;74095;48.270;14.200;2024-02-23T10:58:21;1.85;;;0.50;;
81176;SDS011;74095;48.270;14.200;2024-02-23T11:00:48;0.75;;;0.30;;
81176;SDS011;74095;48.270;14.200;2024-02-23T11:03:14;1.02;;;0.50;;
81176;SDS011;74095;48.270;14.200;2024-02-23T11:05:41;1.00;;;0.40;;
81176;SDS011;74095;48.270;14.200;2024-02-23T11:08:06;1.65;;;0.40;;
81176;SDS011;74095;48.270;14.200;2024-02-23T11:10:42;0.50;;;0.30;;
81176;SDS011;74095;48.270;14.200;2024-02-23T11:13:14;0.35;;;0.30;;
81176;SDS011;74095;48.270;14.200;2024-02-23T11:15:41;0.82;;;0.40;;
81176;SDS011;74095;48.270;14.200;2024-02-23T11:18:51;0.75;;;0.40;;
81176;SDS011;74095;48.270;14.200;2024-02-23T11:20:59;0.50;;;0.20;;
81176;SDS011;74095;48.270;14.200;2024-02-23T11:23:27;0.22;;;0.22;;
81176;SDS011;74095;48.270;14.200;2024-02-23T11:26:05;0.55;;;0.40;;
81176;SDS011;74095;48.270;14.200;2024-02-23T11:28:50;0.85;;;0.25;;
81176;SDS011;74095;48.270;14.200;2024-02-23T11:31:22;1.17;;;0.32;;
81176;SDS011;74095;48.270;14.200;2024-02-23T11:33:50;1.83;;;0.55;;
81176;SDS011;74095;48.270;14.200;2024-02-23T11:36:29;1.35;;;0.43;;
81176;SDS011;74095;48.270;14.200;2024-02-23T11:38:56;0.50;;;0.30;;
81176;SDS011;74095;48.270;14.200;2024-02-23T11:41:23;0.85;;;0.50;;
81176;SDS011;74095;48.270;14.200;2024-02-23T11:43:50;1.52;;;0.40;;
81176;SDS011;74095;48.270;14.200;2024-02-23T11:46:17;1.17;;;0.40;;
81176;SDS011;74095;48.270;14.200;2024-02-23T11:48:44;0.82;;;0.43;;
81176;SDS011;74095;48.270;14.200;2024-02-23T11:51:15;1.60;;;0.43;;
81176;SDS011;74095;48.270;14.200;2024-02-23T11:53:41;1.85;;;0.55;;
81176;SDS011;74095;48.270;14.200;2024-02-23T11:56:07;1.15;;;0.50;;
81176;SDS011;74095;48.270;14.200;2024-02-23T11:58:33;0.80;;;0.40;;
81176;SDS011;74095;48.270;14.200;2024-02-23T12:01:02;2.15;;;0.50;;
81176;SDS011;74095;48.270;14.200;2024-02-23T12:03:29;1.10;;;0.35;;
81176;SDS011;74095;48.270;14.200;2024-02-23T12:06:01;1.42;;;0.80;;
81176;SDS011;74095;48.270;14.200;2024-02-23T12:08:29;1.35;;;0.70;;
81176;SDS011;74095;48.270;14.200;2024-02-23T12:11:03;2.20;;;1.10;;
81176;SDS011;74095;48.270;14.200;2024-02-23T12:13:30;1.02;;;0.60;;
81176;SDS011;74095;48.270;14.200;2024-02-23T12:15:57;1.75;;;0.90;;
81176;SDS011;74095;48.270;14.200;2024-02-23T12:18:23;1.95;;;0.82;;
81176;SDS011;74095;48.270;14.200;2024-02-23T12:20:52;2.13;;;1.20;;
81176;SDS011;74095;48.270;14.200;2024-02-23T12:23:18;2.22;;;1.00;;
81176;SDS011;74095;48.270;14.200;2024-02-23T12:25:53;1.42;;;0.68;;
81176;SDS011;74095;48.270;14.200;2024-02-23T12:28:20;2.05;;;0.60;;
81176;SDS011;74095;48.270;14.200;2024-02-23T12:30:46;1.23;;;0.40;;
81176;SDS011;74095;48.270;14.200;2024-02-23T12:33:14;0.82;;;0.30;;
81176;SDS011;74095;48.270;14.200;2024-02-23T12:35:41;1.25;;;0.40;;
81176;SDS011;74095;48.270;14.200;2024-02-23T12:38:07;2.90;;;0.80;;
81176;SDS011;74095;48.270;14.200;2024-02-23T12:40:32;9.98;;;2.53;;
81176;SDS011;74095;48.270;14.200;2024-02-23T12:42:58;10.73;;;2.42;;
81176;SDS011;74095;48.270;14.200;2024-02-23T12:45:24;8.18;;;2.33;;
81176;SDS011;74095;48.270;14.200;2024-02-23T12:47:50;9.55;;;2.10;;
81176;SDS011;74095;48.270;14.200;2024-02-23T12:50:16;9.32;;;2.53;;
81176;SDS011;74095;48.270;14.200;2024-02-23T12:52:42;1.80;;;0.50;;
81176;SDS011;74095;48.270;14.200;2024-02-23T12:55:08;8.57;;;2.25;;
81176;SDS011;74095;48.270;14.200;2024-02-23T12:57:34;12.73;;;3.15;;
81176;SDS011;74095;48.270;14.200;2024-02-23T13:00:00;4.63;;;1.65;;
81176;SDS011;74095;48.270;14.200;2024-02-23T13:02:26;3.30;;;1.08;;
81176;SDS011;74095;48.270;14.200;2024-02-23T13:04:52;2.13;;;1.02;;
81176;SDS011;74095;48.270;14.200;2024-02-23T13:07:18;2.72;;;1.10;;
81176;SDS011;74095;48.270;14.200;2024-02-23T13:09:44;2.25;;;0.77;;
81176;SDS011;74095;48.270;14.200;2024-02-23T13:12:10;1.83;;;0.50;;
81176;SDS011;74095;48.270;14.200;2024-02-23T13:14:36;1.45;;;0.50;;
81176;SDS011;74095;48.270;14.200;2024-02-23T13:17:02;0.70;;;0.50;;
81176;SDS011;74095;48.270;14.200;2024-02-23T13:19:29;0.82;;;0.50;;
81176;SDS011;74095;48.270;14.200;2024-02-23T13:21:55;3.10;;;0.50;;
81176;SDS011;74095;48.270;14.200;2024-02-23T13:24:21;1.50;;;0.43;;
81176;SDS011;74095;48.270;14.200;2024-02-23T13:26:46;1.05;;;0.80;;
81176;SDS011;74095;48.270;14.200;2024-02-23T13:29:12;1.67;;;0.60;;
81176;SDS011;74095;48.270;14.200;2024-02-23T13:31:38;2.63;;;0.70;;
81176;SDS011;74095;48.270;14.200;2024-02-23T13:34:05;2.03;;;0.90;;
81176;SDS011;74095;48.270;14.200;2024-02-23T13:36:32;2.88;;;0.98;;
81176;SDS011;74095;48.270;14.200;2024-02-23T13:38:58;2.45;;;0.85;;
81176;SDS011;74095;48.270;14.200;2024-02-23T13:41:24;1.80;;;1.08;;
81176;SDS011;74095;48.270;14.200;2024-02-23T13:43:50;2.13;;;0.77;;
81176;SDS011;74095;48.270;14.200;2024-02-23T13:46:16;1.92;;;0.70;;
81176;SDS011;74095;48.270;14.200;2024-02-23T13:48:42;1.00;;;0.47;;
81176;SDS011;74095;48.270;14.200;2024-02-23T13:51:08;0.70;;;0.60;;
81176;SDS011;74095;48.270;14.200;2024-02-23T13:53:34;1.38;;;0.63;;
81176;SDS011;74095;48.270;14.200;2024-02-23T13:56:02;1.20;;;0.47;;
81176;SDS011;74095;48.270;14.200;2024-02-23T13:58:29;1.27;;;0.80;;
81176;SDS011;74095;48.270;14.200;2024-02-23T14:00:55;0.60;;;0.40;;
81176;SDS011;74095;48.270;14.200;2024-02-23T14:03:21;0.90;;;0.50;;
81176;SDS011;74095;48.270;14.200;2024-02-23T14:05:48;1.55;;;0.70;;
81176;SDS011;74095;48.270;14.200;2024-02-23T14:08:14;1.13;;;0.68;;
81176;SDS011;74095;48.270;14.200;2024-02-23T14:10:40;1.23;;;0.70;;
81176;SDS011;74095;48.270;14.200;2024-02-23T14:13:06;2.25;;;0.80;;
81176;SDS011;74095;48.270;14.200;2024-02-23T14:15:32;1.48;;;0.63;;
81176;SDS011;74095;48.270;14.200;2024-02-23T14:17:58;1.92;;;0.80;;
81176;SDS011;74095;48.270;14.200;2024-02-23T14:20:24;1.52;;;0.70;;
81176;SDS011;74095;48.270;14.200;2024-02-23T14:22:49;1.55;;;0.70;;
81176;SDS011;74095;48.270;14.200;2024-02-23T14:25:16;1.85;;;0.90;;
81176;SDS011;74095;48.270;14.200;2024-02-23T14:27:41;1.05;;;0.70;;
81176;SDS011;74095;48.270;14.200;2024-02-23T14:30:08;1.00;;;0.70;;
81176;SDS011;74095;48.270;14.200;2024-02-23T14:32:34;1.45;;;0.60;;
81176;SDS011;74095;48.270;14.200;2024-02-23T14:35:03;0.70;;;0.40;;
81176;SDS011;74095;48.270;14.200;2024-02-23T14:37:29;0.50;;;0.30;;
81176;SDS011;74095;48.270;14.200;2024-02-23T14:39:55;1.23;;;0.80;;
81176;SDS011;74095;48.270;14.200;2024-02-23T14:42:21;1.10;;;0.60;;
81176;SDS011;74095;48.270;14.200;2024-02-23T14:44:47;1.75;;;0.63;;
81176;SDS011;74095;48.270;14.200;2024-02-23T14:47:15;1.70;;;0.90;;
81176;SDS011;74095;48.270;14.200;2024-02-23T14:49:41;0.90;;;0.85;;
81176;SDS011;74095;48.270;14.200;2024-02-23T14:52:07;1.83;;;1.20;;
81176;SDS011;74095;48.270;14.200;2024-02-23T14:54:33;1.95;;;1.00;;
81176;SDS011;74095;48.270;14.200;2024-02-23T14:56:59;2.13;;;1.30;;
81176;SDS011;74095;48.270;14.200;2024-02-23T14:59:25;1.40;;;1.10;;
81176;SDS011;74095;48.270;14.200;2024-02-23T15:01:51;1.63;;;1.30;;
81176;SDS011;74095;48.270;14.200;2024-02-23T15:04:16;1.95;;;1.45;;
81176;SDS011;74095;48.270;14.200;2024-02-23T15:06:42;1.60;;;1.50;;
81176;SDS011;74095;48.270;14.200;2024-02-23T15:09:08;2.58;;;1.60;;
81176;SDS011;74095;48.270;14.200;2024-02-23T15:11:34;1.70;;;1.40;;
81176;SDS011;74095;48.270;14.200;2024-02-23T15:14:00;2.08;;;1.50;;
81176;SDS011;74095;48.270;14.200;2024-02-23T15:16:27;1.67;;;1.55;;
81176;SDS011;74095;48.270;14.200;2024-02-23T15:18:53;1.98;;;1.70;;
81176;SDS011;74095;48.270;14.200;2024-02-23T15:21:19;1.80;;;1.60;;
81176;SDS011;74095;48.270;14.200;2024-02-23T15:23:45;2.50;;;2.00;;
81176;SDS011;74095;48.270;14.200;2024-02-23T15:26:12;2.30;;;1.60;;
81176;SDS011;74095;48.270;14.200;2024-02-23T15:28:38;3.05;;;2.28;;
81176;SDS011;74095;48.270;14.200;2024-02-23T15:31:04;3.25;;;2.03;;
81176;SDS011;74095;48.270;14.200;2024-02-23T15:33:30;3.45;;;1.90;;
81176;SDS011;74095;48.270;14.200;2024-02-23T15:35:56;3.30;;;2.28;;
81176;SDS011;74095;48.270;14.200;2024-02-23T15:38:22;2.58;;;1.60;;